createdAt,value
2022-09-14T00:00:32.226Z,6.90
2022-09-14T00:03:59.740Z,7.10
2022-09-14T00:07:01.436Z,7.10
2022-09-14T00:10:03.593Z,6.70
2022-09-14T00:13:25.215Z,7.10
2022-09-14T00:16:32.523Z,6.40
2022-09-14T00:19:34.486Z,6.90
2022-09-14T00:22:36.115Z,6.90
2022-09-14T00:25:37.801Z,7.10
2022-09-14T00:28:45.469Z,6.80
2022-09-14T00:31:47.231Z,7.30
2022-09-14T00:34:49.042Z,6.90
2022-09-14T00:37:51.534Z,7.50
2022-09-14T00:40:58.355Z,7.70
2022-09-14T00:44:05.992Z,7.50
2022-09-14T00:47:07.960Z,8.00
2022-09-14T00:50:10.048Z,8.00
2022-09-14T00:53:11.855Z,8.00
2022-09-14T00:56:14.361Z,8.20
2022-09-14T00:59:18.384Z,8.20
2022-09-14T01:02:22.623Z,7.90
2022-09-14T01:05:44.780Z,8.10
2022-09-14T01:09:11.160Z,7.90
2022-09-14T01:12:20.509Z,7.90
2022-09-14T01:15:34.416Z,7.50
2022-09-14T01:18:39.534Z,7.70
2022-09-14T01:21:42.488Z,7.90
2022-09-14T01:24:56.864Z,8.00
2022-09-14T01:28:01.752Z,8.10
2022-09-14T01:31:09.368Z,8.00
2022-09-14T01:34:15.953Z,7.90
2022-09-14T01:37:23.138Z,7.90
2022-09-14T01:40:30.215Z,8.50
2022-09-14T01:43:46.414Z,8.70
2022-09-14T01:46:54.038Z,8.10
2022-09-14T01:50:00.381Z,9.40
2022-09-14T01:53:11.061Z,8.60
2022-09-14T01:56:32.201Z,8.70
2022-09-14T01:59:37.828Z,8.70
2022-09-14T02:02:44.475Z,7.90
2022-09-14T02:06:34.025Z,8.50
2022-09-14T02:09:35.913Z,8.60
2022-09-14T02:12:38.039Z,8.60
2022-09-14T02:15:39.851Z,8.60
2022-09-14T02:18:43.635Z,9.20
2022-09-14T02:21:45.891Z,8.70
2022-09-14T02:24:48.431Z,8.80
2022-09-14T02:27:50.622Z,8.50
2022-09-14T02:31:18.007Z,8.60
2022-09-14T02:34:43.169Z,8.60
2022-09-14T02:37:47.653Z,9.30
2022-09-14T02:40:57.288Z,8.70
2022-09-14T02:44:17.165Z,9.10
2022-09-14T02:47:45.995Z,8.80
2022-09-14T02:51:06.706Z,8.50
2022-09-14T02:54:15.665Z,9.00
2022-09-14T02:57:17.655Z,9.50
2022-09-14T03:00:19.596Z,9.30
2022-09-14T03:03:21.875Z,9.90
2022-09-14T03:06:24.275Z,10.00
2022-09-14T03:09:26.575Z,10.00
2022-09-14T03:12:28.351Z,9.90
2022-09-14T03:15:30.326Z,10.60
2022-09-14T03:18:33.204Z,10.40
2022-09-14T03:21:35.066Z,10.40
2022-09-14T03:24:37.425Z,9.80
2022-09-14T03:27:39.875Z,8.90
2022-09-14T03:30:41.572Z,9.70
2022-09-14T03:33:43.497Z,10.50
2022-09-14T03:36:45.174Z,10.00
2022-09-14T03:39:46.849Z,11.80
2022-09-14T03:42:50.667Z,11.20
2022-09-14T03:45:52.345Z,10.10
2022-09-14T03:48:55.523Z,9.90
2022-09-14T03:51:59.762Z,10.90
2022-09-14T03:55:02.490Z,10.50
2022-09-14T03:58:04.119Z,10.80
2022-09-14T04:01:07.741Z,11.10
2022-09-14T04:04:09.543Z,10.80
2022-09-14T04:07:11.200Z,10.10
2022-09-14T04:10:12.995Z,10.00
2022-09-14T04:13:14.879Z,10.50
2022-09-14T04:16:18.321Z,10.90
2022-09-14T04:19:19.996Z,10.80
2022-09-14T04:22:21.777Z,10.30
2022-09-14T04:25:23.593Z,10.50
2022-09-14T04:28:25.258Z,10.60
2022-09-14T04:31:27.292Z,10.20
2022-09-14T04:34:29.147Z,11.50
2022-09-14T04:37:32.575Z,13.70
2022-09-14T04:40:34.308Z,18.30
2022-09-14T04:43:36.219Z,14.40
2022-09-14T04:46:45.811Z,11.50
2022-09-14T04:49:48.540Z,13.70
2022-09-14T04:52:50.288Z,11.50
2022-09-14T04:55:52.026Z,13.30
2022-09-14T04:58:56.489Z,12.60
2022-09-14T05:01:58.292Z,10.40
2022-09-14T05:04:59.986Z,8.40
2022-09-14T05:08:02.060Z,8.10
2022-09-14T05:11:04.010Z,8.10
2022-09-14T05:14:06.031Z,7.60
2022-09-14T05:17:08.160Z,7.90
2022-09-14T05:20:09.976Z,8.10
2022-09-14T05:23:12.257Z,7.80
2022-09-14T05:26:14.654Z,7.70
2022-09-14T05:29:18.390Z,8.10
2022-09-14T05:32:20.136Z,7.20
2022-09-14T05:35:21.880Z,9.10
2022-09-14T05:38:23.576Z,9.60
2022-09-14T05:41:25.375Z,8.60
2022-09-14T05:44:27.054Z,7.50
2022-09-14T05:47:34.804Z,8.10
2022-09-14T05:50:38.946Z,8.00
2022-09-14T05:53:41.000Z,8.40
2022-09-14T05:56:42.644Z,7.70
2022-09-14T05:59:44.314Z,7.70
2022-09-14T06:02:50.231Z,8.40
2022-09-14T06:05:54.895Z,8.50
2022-09-14T06:08:57.014Z,9.70
2022-09-14T06:11:59.010Z,8.50
2022-09-14T06:15:00.760Z,8.40
2022-09-14T06:18:02.509Z,8.10
2022-09-14T06:21:05.173Z,8.10
2022-09-14T06:24:06.892Z,6.80
2022-09-14T06:27:09.421Z,6.90
2022-09-14T06:30:11.674Z,7.50
2022-09-14T06:33:13.681Z,7.20
2022-09-14T06:36:19.770Z,7.70
2022-09-14T06:39:21.425Z,7.30
2022-09-14T06:42:23.315Z,7.20
2022-09-14T06:45:25.335Z,6.90
2022-09-14T06:48:28.975Z,6.70
2022-09-14T06:51:39.096Z,6.90
2022-09-14T06:54:41.365Z,6.90
2022-09-14T06:57:43.277Z,6.90
2022-09-14T07:00:44.933Z,6.60
2022-09-14T07:03:47.903Z,6.10
2022-09-14T07:06:50.165Z,5.80
2022-09-14T07:09:51.953Z,5.70
2022-09-14T07:12:56.424Z,5.10
2022-09-14T07:15:58.447Z,5.30
2022-09-14T07:19:02.045Z,5.50
2022-09-14T07:22:03.739Z,5.50
2022-09-14T07:25:05.991Z,6.10
2022-09-14T07:28:08.013Z,6.20
2022-09-14T07:31:21.898Z,5.90
2022-09-14T07:34:24.994Z,5.60
2022-09-14T07:37:26.737Z,5.80
2022-09-14T07:40:28.444Z,5.70
2022-09-14T07:43:30.657Z,5.70
2022-09-14T07:46:38.433Z,5.70
2022-09-14T07:49:40.308Z,5.40
2022-09-14T07:52:41.990Z,5.50
2022-09-14T07:55:43.816Z,5.60
2022-09-14T07:58:45.757Z,5.30
2022-09-14T08:01:49.428Z,5.50
2022-09-14T08:04:53.946Z,5.30
2022-09-14T08:07:56.330Z,5.30
2022-09-14T08:11:12.199Z,5.90
2022-09-14T08:14:14.252Z,8.10
2022-09-14T08:17:15.914Z,5.60
2022-09-14T08:20:17.973Z,5.30
2022-09-14T08:23:19.667Z,5.40
2022-09-14T08:26:23.715Z,5.60
2022-09-14T08:29:26.122Z,5.80
2022-09-14T08:32:28.125Z,5.60
2022-09-14T08:35:53.946Z,5.70
2022-09-14T08:38:51.704Z,5.70
2022-09-14T08:41:59.089Z,7.00
2022-09-14T08:45:08.922Z,6.30
2022-09-14T08:48:20.742Z,8.60
2022-09-14T08:54:24.547Z,6.60
2022-09-14T08:57:40.704Z,5.10
2022-09-14T09:01:24.262Z,4.90
2022-09-14T09:04:44.429Z,4.90
2022-09-14T09:07:56.880Z,4.80
2022-09-14T09:11:01.693Z,4.60
2022-09-14T09:14:17.743Z,4.60
2022-09-14T09:17:25.454Z,5.00
2022-09-14T09:20:33.728Z,4.80
2022-09-14T09:23:36.123Z,4.90
2022-09-14T09:26:39.498Z,4.90
2022-09-14T09:29:41.261Z,4.80
2022-09-14T09:32:43.407Z,4.50
2022-09-14T09:35:45.186Z,4.70
2022-09-14T09:38:47.571Z,4.70
2022-09-14T09:42:14.090Z,4.70
2022-09-14T09:45:15.946Z,5.10
2022-09-14T09:48:19.929Z,4.50
2022-09-14T09:51:24.778Z,4.80
2022-09-14T09:54:31.219Z,4.50
2022-09-14T09:57:35.845Z,4.70
2022-09-14T10:00:37.692Z,4.70
2022-09-14T10:03:40.671Z,4.20
2022-09-14T10:06:48.092Z,4.50
2022-09-14T10:10:06.235Z,4.50
2022-09-14T10:13:17.146Z,4.30
2022-09-14T10:16:20.673Z,4.00
2022-09-14T10:19:26.104Z,4.00
2022-09-14T10:22:35.722Z,4.20
2022-09-14T10:25:37.801Z,3.90
2022-09-14T10:28:40.889Z,4.10
2022-09-14T10:31:43.423Z,4.60
2022-09-14T10:34:45.877Z,4.50
2022-09-14T10:38:16.123Z,4.00
2022-09-14T10:44:47.453Z,4.50
2022-09-14T10:48:00.413Z,4.30
2022-09-14T10:51:14.503Z,4.30
2022-09-14T10:54:58.389Z,4.60
2022-09-14T10:58:47.587Z,5.00
2022-09-14T11:01:55.707Z,4.50
2022-09-14T11:05:06.532Z,4.30
2022-09-14T11:08:26.331Z,4.20
2022-09-14T11:11:40.333Z,4.70
2022-09-14T11:14:51.696Z,4.70
2022-09-14T11:18:08.758Z,4.90
2022-09-14T11:21:21.267Z,5.10
2022-09-14T11:24:44.009Z,5.10
2022-09-14T11:27:58.484Z,5.30
2022-09-14T11:31:04.880Z,5.20
2022-09-14T11:34:16.777Z,5.50
2022-09-14T11:37:21.346Z,6.00
2022-09-14T11:40:31.457Z,5.20
2022-09-14T11:43:39.885Z,4.50
2022-09-14T11:47:04.257Z,3.90
2022-09-14T11:50:24.330Z,4.10
2022-09-14T11:53:26.361Z,4.00
2022-09-14T11:56:31.048Z,3.90
2022-09-14T11:59:41.877Z,4.00
2022-09-14T12:02:55.964Z,4.20
2022-09-14T12:06:29.652Z,4.30
2022-09-14T12:09:39.541Z,4.10
2022-09-14T12:12:46.662Z,3.70
2022-09-14T12:15:48.640Z,3.90
2022-09-14T12:18:55.879Z,4.10
2022-09-14T12:22:33.905Z,4.20
2022-09-14T12:25:37.974Z,4.30
2022-09-14T12:28:48.124Z,4.00
2022-09-14T12:31:56.387Z,4.00
2022-09-14T12:35:38.886Z,4.00
2022-09-14T12:38:43.393Z,4.40
2022-09-14T12:41:47.994Z,4.20
2022-09-14T12:44:49.774Z,4.50
2022-09-14T12:47:52.248Z,4.40
2022-09-14T12:50:54.855Z,4.20
2022-09-14T12:54:08.937Z,4.50
2022-09-14T12:57:24.502Z,4.40
2022-09-14T13:00:28.438Z,4.60
2022-09-14T13:03:52.904Z,4.30
2022-09-14T13:06:56.572Z,4.40
2022-09-14T13:10:00.220Z,7.50
2022-09-14T13:13:24.948Z,7.10
2022-09-14T13:16:47.471Z,6.70
2022-09-14T13:20:01.279Z,7.30
2022-09-14T13:23:03.534Z,8.60
2022-09-14T13:26:23.325Z,7.60
2022-09-14T13:29:27.144Z,7.80
2022-09-14T13:32:29.177Z,8.40
2022-09-14T13:35:55.690Z,12.80
2022-09-14T13:39:01.666Z,7.50
2022-09-14T13:42:04.060Z,9.10
2022-09-14T13:45:06.423Z,7.80
2022-09-14T13:48:10.784Z,6.70
2022-09-14T13:51:13.987Z,5.90
2022-09-14T13:54:26.048Z,5.90
2022-09-14T13:57:27.841Z,6.40
2022-09-14T14:00:29.581Z,7.40
2022-09-14T14:03:34.334Z,5.90
2022-09-14T14:06:38.033Z,6.00
2022-09-14T14:09:51.838Z,5.80
2022-09-14T14:12:54.120Z,5.40
2022-09-14T14:16:16.253Z,5.40
2022-09-14T14:19:31.149Z,5.60
2022-09-14T14:22:34.493Z,5.50
2022-09-14T14:26:09.938Z,5.30
2022-09-14T14:29:12.632Z,5.30
2022-09-14T14:32:14.434Z,5.70
2022-09-14T14:35:20.076Z,5.00
2022-09-14T14:38:23.759Z,5.60
2022-09-14T14:41:25.580Z,5.70
2022-09-14T14:44:29.154Z,6.20
2022-09-14T14:47:30.796Z,5.90
2022-09-14T14:50:34.159Z,5.90
2022-09-14T14:53:35.960Z,5.40
2022-09-14T14:56:38.629Z,5.20
2022-09-14T14:59:40.221Z,5.60
2022-09-14T15:02:42.760Z,6.20
2022-09-14T15:05:45.860Z,5.30
2022-09-14T15:08:47.852Z,5.10
2022-09-14T15:11:50.557Z,4.40
2022-09-14T15:14:52.177Z,4.80
2022-09-14T15:17:54.147Z,6.30
2022-09-14T15:20:56.011Z,4.90
2022-09-14T15:23:58.937Z,5.00
2022-09-14T15:27:00.683Z,4.10
2022-09-14T15:30:03.560Z,4.00
2022-09-14T15:33:05.401Z,4.10
2022-09-14T15:36:07.115Z,4.50
2022-09-14T15:39:11.897Z,4.50
2022-09-14T15:42:14.123Z,5.00
2022-09-14T15:45:15.957Z,4.40
2022-09-14T15:48:18.710Z,4.90
2022-09-14T15:51:20.364Z,4.90
2022-09-14T15:54:24.396Z,4.80
2022-09-14T15:57:27.492Z,4.60
2022-09-14T16:00:29.171Z,4.40
2022-09-14T16:03:31.360Z,5.00
2022-09-14T16:06:33.788Z,4.60
2022-09-14T16:09:37.437Z,5.20
2022-09-14T16:12:39.117Z,5.10
2022-09-14T16:15:41.492Z,4.80
2022-09-14T16:18:43.547Z,5.10
2022-09-14T16:21:45.335Z,5.30
2022-09-14T16:24:47.358Z,5.60
2022-09-14T16:27:49.108Z,5.50
2022-09-14T16:30:51.025Z,5.80
2022-09-14T16:33:55.626Z,5.60
2022-09-14T16:36:58.810Z,5.20
2022-09-14T16:40:00.906Z,5.00
2022-09-14T16:43:02.746Z,5.00
2022-09-14T16:46:05.587Z,5.20
2022-09-14T16:49:07.495Z,5.40
2022-09-14T16:52:09.193Z,5.30
2022-09-14T16:55:10.795Z,5.70
2022-09-14T16:58:12.580Z,6.20
2022-09-14T17:01:20.427Z,5.60
2022-09-14T17:04:42.174Z,6.10
2022-09-14T17:07:44.012Z,6.70
2022-09-14T17:10:47.167Z,5.60
2022-09-14T17:13:49.212Z,5.80
2022-09-14T17:16:51.066Z,6.00
2022-09-14T17:19:52.937Z,6.60
2022-09-14T17:22:54.636Z,6.70
2022-09-14T17:25:56.930Z,6.40
2022-09-14T17:28:59.424Z,6.90
2022-09-14T17:32:01.316Z,7.20
2022-09-14T17:35:03.870Z,7.30
2022-09-14T17:38:05.677Z,8.60
2022-09-14T17:41:15.402Z,10.40
2022-09-14T17:44:18.076Z,12.00
2022-09-14T17:47:19.970Z,11.40
2022-09-14T17:50:23.559Z,10.90
2022-09-14T17:53:25.434Z,11.10
2022-09-14T17:56:28.424Z,9.80
2022-09-14T17:59:30.252Z,9.00
2022-09-14T18:02:31.958Z,9.70
2022-09-14T18:05:33.803Z,9.60
2022-09-14T18:08:36.074Z,9.30
2022-09-14T18:11:38.085Z,9.60
2022-09-14T18:14:39.974Z,9.90
2022-09-14T18:17:43.707Z,9.70
2022-09-14T18:20:45.608Z,9.50
2022-09-14T18:23:51.648Z,9.30
2022-09-14T18:26:53.475Z,9.50
2022-09-14T18:29:55.366Z,9.20
2022-09-14T18:32:57.051Z,8.80
2022-09-14T18:35:58.808Z,9.10
2022-09-14T18:39:00.966Z,8.90
2022-09-14T18:42:03.902Z,9.10
2022-09-14T18:45:06.150Z,8.70
2022-09-14T18:48:07.776Z,9.80
2022-09-14T18:51:11.071Z,9.30
2022-09-14T18:54:13.509Z,9.40
2022-09-14T18:57:17.797Z,10.40
2022-09-14T19:00:19.591Z,9.40
2022-09-14T19:03:21.667Z,8.90
2022-09-14T19:06:24.336Z,9.20
2022-09-14T19:09:26.654Z,9.70
2022-09-14T19:12:28.826Z,10.00
2022-09-14T19:15:32.672Z,10.10
2022-09-14T19:18:35.329Z,9.60
2022-09-14T19:21:37.241Z,9.20
2022-09-14T19:24:39.014Z,10.20
2022-09-14T19:27:40.693Z,10.40
2022-09-14T19:30:42.661Z,10.00
2022-09-14T19:33:45.808Z,9.20
2022-09-14T19:36:47.645Z,9.00
2022-09-14T19:39:49.742Z,8.70
2022-09-14T19:42:51.985Z,8.90
2022-09-14T19:45:53.879Z,9.10
2022-09-14T19:48:55.853Z,9.30
2022-09-14T19:52:00.668Z,9.60
2022-09-14T19:55:02.379Z,9.10
2022-09-14T19:58:04.156Z,9.20
2022-09-14T20:01:06.441Z,9.10
2022-09-14T20:04:10.343Z,9.40
2022-09-14T20:07:11.950Z,9.00
2022-09-14T20:10:13.593Z,8.60
2022-09-14T20:13:15.712Z,7.60
2022-09-14T20:16:23.875Z,7.00
2022-09-14T20:19:27.832Z,7.70
2022-09-14T20:22:29.625Z,7.30
2022-09-14T20:25:31.767Z,7.60
2022-09-14T20:28:34.090Z,7.70
2022-09-14T20:31:35.791Z,8.30
2022-09-14T20:34:37.530Z,8.70
2022-09-14T20:37:39.664Z,7.70
2022-09-14T20:40:41.329Z,8.10
2022-09-14T20:43:46.246Z,8.10
2022-09-14T20:46:48.395Z,8.40
2022-09-14T20:49:50.668Z,8.50
2022-09-14T20:52:52.249Z,8.20
2022-09-14T20:56:00.441Z,7.60
2022-09-14T20:59:04.728Z,8.10
2022-09-14T21:02:06.826Z,8.70
2022-09-14T21:05:09.062Z,8.30
2022-09-14T21:08:10.766Z,8.90
2022-09-14T21:11:15.937Z,8.90
2022-09-14T21:14:19.771Z,8.80
2022-09-14T21:17:22.185Z,9.40
2022-09-14T21:20:23.925Z,10.00
2022-09-14T21:23:26.269Z,9.60
2022-09-14T21:26:29.630Z,9.40
2022-09-14T21:29:31.881Z,9.90
2022-09-14T21:32:33.553Z,9.90
2022-09-14T21:35:35.364Z,9.40
2022-09-14T21:38:37.961Z,9.90
2022-09-14T21:41:40.987Z,10.80
2022-09-14T21:44:42.650Z,10.80
2022-09-14T21:47:44.526Z,10.90
2022-09-14T21:50:47.531Z,10.90
2022-09-14T21:53:52.024Z,11.10
2022-09-14T21:56:53.877Z,10.80
2022-09-14T21:59:55.842Z,11.50
2022-09-14T22:02:57.557Z,11.10
2022-09-14T22:06:01.684Z,11.00
2022-09-14T22:09:03.414Z,11.20
2022-09-14T22:12:05.328Z,10.20
2022-09-14T22:15:07.414Z,10.40
2022-09-14T22:18:09.231Z,11.20
2022-09-14T22:21:10.986Z,10.50
2022-09-14T22:24:16.117Z,11.00
2022-09-14T22:27:17.768Z,10.00
2022-09-14T22:30:19.441Z,10.60
2022-09-14T22:33:25.368Z,10.30
2022-09-14T22:36:27.470Z,10.40
2022-09-14T22:39:29.736Z,9.50
2022-09-14T22:42:31.613Z,8.70
2022-09-14T22:45:33.352Z,8.80
2022-09-14T22:48:36.973Z,9.00
2022-09-14T22:51:39.146Z,9.40
2022-09-14T22:54:40.976Z,9.20
2022-09-14T22:57:42.665Z,9.70
2022-09-14T23:00:44.925Z,9.00
2022-09-14T23:03:46.593Z,9.80
2022-09-14T23:06:48.934Z,9.10
2022-09-14T23:09:50.597Z,9.90
2022-09-14T23:12:52.324Z,9.40
2022-09-14T23:15:54.041Z,10.20
2022-09-14T23:18:58.297Z,9.50
2022-09-14T23:22:01.165Z,9.10
2022-09-14T23:25:03.223Z,9.50
2022-09-14T23:28:06.566Z,10.10
2022-09-14T23:31:08.410Z,9.70
2022-09-14T23:34:10.094Z,9.00
2022-09-14T23:37:11.757Z,8.80
2022-09-14T23:40:13.868Z,8.40
2022-09-14T23:43:19.487Z,8.50
2022-09-14T23:46:22.141Z,8.60
2022-09-14T23:49:23.995Z,8.50
2022-09-14T23:52:25.726Z,9.00
2022-09-14T23:55:27.784Z,9.50
2022-09-14T23:58:29.582Z,9.60
